Time;durP1;ratioP1;P1;durP2;ratioP2;P2;SDS_P1;SDS_P2;PMS_P1;PMS_P2;Temp;Humidity;BMP_temperature;BMP_pressure;BME280_temperature;BME280_humidity;BME280_pressure;Samples;Min_cycle;Max_cycle;Signal;HPM_P1;HPM_P2
2022/11/10 00:01:07;;;;;;;5.13;4.55;;;;;;;9.33;100.00;101398.97;6147021;23;20020;-72
2022/11/10 00:03:35;;;;;;;4.97;4.57;;;;;;;8.81;100.00;101303.94;6116151;23;20033;-73
2022/11/10 00:06:03;;;;;;;4.15;3.95;;;;;;;9.40;100.00;101397.81;6170609;23;20434;-73
2022/11/10 00:08:29;;;;;;;4.97;4.57;;;;;;;8.84;100.00;101293.34;6115743;23;20030;-73
2022/11/10 00:10:56;;;;;;;6.38;4.63;;;;;;;9.16;100.00;101352.41;6169234;23;20020;-73
2022/11/10 00:13:28;;;;;;;5.00;4.60;;;;;;;8.81;100.00;101302.19;6150982;23;20017;-73
2022/11/10 00:18:44;;;;;;;5.05;4.55;;;;;;;9.33;100.00;101406.84;6137170;23;20079;-73
2022/11/10 00:21:11;;;;;;;4.88;4.57;;;;;;;8.89;100.00;101331.56;6168514;23;20288;-72
2022/11/10 00:23:38;;;;;;;4.60;4.40;;;;;;;8.93;100.00;101322.69;6134772;23;20025;-73
2022/11/10 00:26:10;;;;;;;4.30;4.10;;;;;;;9.37;100.00;101403.19;6172391;23;20180;-73
2022/11/10 00:28:37;;;;;;;5.60;4.95;;;;;;;9.22;100.00;101380.16;6111950;23;20096;-73
2022/11/10 00:31:05;;;;;;;4.45;4.15;;;;;;;8.56;100.00;101262.94;6169189;23;20032;-73
2022/11/10 00:33:37;;;;;;;5.10;4.80;;;;;;;9.30;100.00;101399.94;6129756;23;20083;-72
2022/11/10 00:36:04;;;;;;;6.57;4.80;;;;;;;9.13;100.00;101381.34;6170976;23;20032;-73
2022/11/10 00:38:30;;;;;;;8.95;4.32;;;;;;;8.69;100.00;101300.84;6141412;23;20028;-74
2022/11/10 00:40:58;;;;;;;4.45;4.25;;;;;;;8.59;100.00;101305.53;6146889;23;20009;-73
2022/11/10 00:43:25;;;;;;;5.20;4.50;;;;;;;8.50;100.00;101298.00;6146056;23;20025;-73
2022/11/10 00:45:52;;;;;;;9.73;4.38;;;;;;;8.97;100.00;101374.03;6151917;23;20024;-73
2022/11/10 00:48:18;;;;;;;8.77;4.35;;;;;;;8.70;100.00;101351.41;6114242;23;20087;-73
2022/11/10 00:50:45;;;;;;;10.02;4.28;;;;;;;8.92;100.00;101389.03;6174553;23;20029;-73
2022/11/10 00:53:12;;;;;;;4.35;4.15;;;;;;;8.42;100.00;101307.00;6120734;23;20699;-72
2022/11/10 00:55:40;;;;;;;4.68;4.47;;;;;;;9.01;100.00;101400.97;6171842;23;20040;-72
2022/11/10 00:58:06;;;;;;;7.80;4.40;;;;;;;8.87;100.00;101383.09;6132289;23;20013;-73
2022/11/10 01:00:33;;;;;;;4.32;4.05;;;;;;;8.82;100.00;101418.19;6173942;23;20021;-72
2022/11/10 01:03:01;;;;;;;4.50;4.25;;;;;;;8.75;100.00;101392.22;6137665;23;20131;-72
2022/11/10 01:05:28;;;;;;;5.00;4.60;;;;;;;8.37;100.00;101354.22;6170159;23;20026;-73
2022/11/10 01:07:57;;;;;;;4.20;4.00;;;;;;;8.44;100.00;101358.38;6121796;23;20392;-73
2022/11/10 01:10:23;;;;;;;4.70;4.35;;;;;;;8.26;100.00;101328.41;6143520;23;20570;-73
2022/11/10 01:12:50;;;;;;;4.00;3.80;;;;;;;8.18;100.00;101299.91;6089417;23;20213;-73
2022/11/10 01:15:16;;;;;;;4.00;3.80;;;;;;;8.47;100.00;101347.81;6173860;23;20063;-72
2022/11/10 01:17:46;;;;;;;5.85;4.20;;;;;;;8.72;100.00;101392.34;6113611;23;20031;-72
2022/11/10 01:20:12;;;;;;;5.03;4.57;;;;;;;8.57;100.00;101370.13;6168980;23;20506;-73
2022/11/10 01:22:39;;;;;;;4.30;4.10;;;;;;;8.64;100.00;101388.25;6125579;23;20075;-73
2022/11/10 01:25:06;;;;;;;4.63;4.15;;;;;;;8.65;100.00;101398.66;6168733;23;20341;-73
2022/11/10 01:27:33;;;;;;;5.30;4.13;;;;;;;8.54;100.00;101364.16;6121511;23;20089;-74
2022/11/10 01:29:59;;;;;;;4.20;4.00;;;;;;;8.63;100.00;101350.75;6152209;23;20032;-72
2022/11/10 01:32:26;;;;;;;5.63;4.22;;;;;;;8.33;100.00;101332.53;6139818;23;20251;-73
2022/11/10 01:34:52;;;;;;;4.75;4.55;;;;;;;8.25;100.00;101307.53;6173066;23;20005;-72
2022/11/10 01:37:18;;;;;;;4.30;4.10;;;;;;;8.70;100.00;101416.81;6128552;23;20017;-72
2022/11/10 01:39:45;;;;;;;4.40;4.18;;;;;;;8.24;100.00;101321.50;6172759;23;20020;-73
2022/11/10 01:42:11;;;;;;;4.10;3.90;;;;;;;8.24;100.00;101319.78;6113552;23;20254;-73
2022/11/10 01:44:40;;;;;;;4.30;4.10;;;;;;;8.65;100.00;101409.13;6141289;23;20352;-73
2022/11/10 01:47:06;;;;;;;7.68;4.60;;;;;;;8.53;100.00;101376.38;6107697;23;20028;-72
2022/11/10 01:49:34;;;;;;;6.53;4.35;;;;;;;8.63;100.00;101397.88;6171238;23;20029;-73
2022/11/10 01:52:10;;;;;;;5.15;4.28;;;;;;;8.74;100.00;101393.13;6106049;23;20213;-72
2022/11/10 01:54:42;;;;;;;4.72;4.43;;;;;;;8.67;100.00;101396.84;6166808;23;20078;-72
2022/11/10 01:57:11;;;;;;;5.85;5.10;;;;;;;8.24;100.00;101345.03;6138613;23;20140;-72
2022/11/10 01:59:42;;;;;;;5.28;4.10;;;;;;;8.56;100.00;101385.91;6172021;23;20028;-73
2022/11/10 02:02:31;;;;;;;7.85;5.43;;;;;;;8.53;100.00;101392.06;6126287;23;20416;-72
2022/11/10 02:04:58;;;;;;;5.43;4.30;;;;;;;8.63;100.00;101405.72;6143714;23;20044;-73
2022/11/10 02:07:25;;;;;;;7.00;4.53;;;;;;;8.42;100.00;101380.25;6097569;23;20024;-73
2022/11/10 02:09:52;;;;;;;4.35;4.13;;;;;;;8.58;100.00;101410.25;6151125;23;20036;-73
2022/11/10 02:12:35;;;;;;;4.38;4.18;;;;;;;8.33;100.00;101392.69;6114379;23;20013;-74
2022/11/10 02:15:02;;;;;;;;;;;;;;;7.75;100.00;101285.56;6169080;23;20431;-75
2022/11/10 02:17:29;;;;;;;4.72;4.30;;;;;;;8.31;100.00;101375.34;6144234;23;19931;-73
2022/11/10 02:20:07;;;;;;;7.38;4.50;;;;;;;8.14;100.00;101358.44;6145911;23;20044;-73
2022/11/10 02:22:33;;;;;;;6.60;4.15;;;;;;;8.36;100.00;101392.59;6128912;23;20041;-74
2022/11/10 02:24:59;;;;;;;5.50;5.00;;;;;;;8.42;100.00;101409.00;6142648;23;20035;-73
2022/11/10 02:27:26;;;;;;;9.07;4.18;;;;;;;8.13;100.00;101361.06;6140147;23;20026;-74
2022/11/10 02:29:53;;;;;;;4.10;3.90;;;;;;;8.17;100.00;101384.47;6145838;23;20024;-74
2022/11/10 02:32:19;;;;;;;4.50;4.00;;;;;;;8.26;100.00;101398.13;6114021;23;20029;-74
2022/11/10 02:34:46;;;;;;;5.95;4.60;;;;;;;8.26;100.00;101409.47;6167358;23;20028;-74
2022/11/10 02:37:12;;;;;;;4.35;4.15;;;;;;;8.38;100.00;101418.72;6134408;23;20013;-73
2022/11/10 02:39:38;;;;;;;4.60;4.20;;;;;;;7.50;100.00;101284.63;6168039;23;20025;-73
2022/11/10 02:42:09;;;;;;;4.35;4.05;;;;;;;8.06;100.00;101380.47;6142968;23;20185;-73
2022/11/10 02:44:37;;;;;;;4.40;4.10;;;;;;;8.02;100.00;101381.47;6165848;23;20258;-74
2022/11/10 02:47:03;;;;;;;7.35;4.70;;;;;;;7.73;100.00;101316.09;6124106;23;20214;-76
2022/11/10 02:49:30;;;;;;;5.22;4.82;;;;;;;7.91;100.00;101348.66;6173364;23;20346;-76
2022/11/10 02:51:56;;;;;;;8.20;5.22;;;;;;;7.49;100.00;101282.91;6113664;23;20405;-73
2022/11/10 02:54:22;;;;;;;11.32;4.63;;;;;;;7.91;100.00;101355.66;6165947;23;20573;-72
2022/11/10 02:56:49;;;;;;;4.25;3.97;;;;;;;8.04;100.00;101359.63;6110080;23;20111;-73
2022/11/10 02:59:15;;;;;;;10.93;4.72;;;;;;;8.34;100.00;101409.25;6169219;23;20070;-72
2022/11/10 03:01:42;;;;;;;5.82;3.95;;;;;;;8.19;100.00;101407.94;6143592;23;20436;-73
2022/11/10 03:04:08;;;;;;;6.85;4.30;;;;;;;8.26;100.00;101419.94;6131392;23;20048;-73
2022/11/10 03:06:34;;;;;;;4.25;4.05;;;;;;;8.11;100.00;101416.03;6169721;23;20017;-73
2022/11/10 03:09:02;;;;;;;4.63;4.15;;;;;;;8.23;100.00;101440.09;6136555;23;20024;-73
2022/11/10 03:11:29;;;;;;;11.48;4.43;;;;;;;7.74;100.00;101379.69;6173197;23;20511;-73
2022/11/10 03:13:58;;;;;;;3.92;3.72;;;;;;;8.15;100.00;101450.78;6118193;23;20013;-73
2022/11/10 03:16:27;;;;;;;5.28;4.78;;;;;;;6.92;100.00;101253.22;6170798;23;20070;-73
2022/11/10 03:18:53;;;;;;;4.45;4.05;;;;;;;7.85;100.00;101408.97;6087143;23;20026;-73
2022/11/10 03:21:20;;;;;;;8.10;4.00;;;;;;;7.76;100.00;101396.19;6150287;23;20307;-74
2022/11/10 03:23:46;;;;;;;4.40;4.20;;;;;;;8.14;100.00;101451.69;6136061;23;20339;-72
2022/11/10 03:26:13;;;;;;;5.00;4.60;;;;;;;8.14;100.00;101457.78;6145421;23;20013;-73
2022/11/10 03:28:39;;;;;;;9.38;3.88;;;;;;;8.17;100.00;101451.59;6114636;23;20028;-74
2022/11/10 03:31:06;;;;;;;4.68;4.40;;;;;;;8.12;100.00;101432.59;6173411;23;20242;-73
2022/11/10 03:33:32;;;;;;;5.07;4.25;;;;;;;8.23;100.00;101440.09;6093854;23;20083;-73
2022/11/10 03:35:58;;;;;;;4.40;4.10;;;;;;;7.90;100.00;101382.72;6145697;23;20083;-73
2022/11/10 03:38:25;;;;;;;6.72;4.40;;;;;;;7.94;100.00;101403.47;6176960;23;20024;-73
2022/11/10 03:40:51;;;;;;;11.35;5.43;;;;;;;8.05;100.00;101412.75;6131683;23;20084;-73
2022/11/10 03:43:37;;;;;;;4.65;4.18;;;;;;;8.26;100.00;101456.56;6174142;23;20399;-73
2022/11/10 03:46:04;;;;;;;4.72;4.40;;;;;;;8.36;100.00;101473.66;6117943;23;20350;-73
2022/11/10 03:48:30;;;;;;;4.43;4.22;;;;;;;7.89;100.00;101404.50;6163312;23;20016;-73
2022/11/10 03:50:56;;;;;;;5.50;5.00;;;;;;;7.96;100.00;101406.03;6133123;23;20021;-73
2022/11/10 03:53:23;;;;;;;4.97;4.57;;;;;;;8.13;100.00;101449.97;6139001;23;20035;-74
2022/11/10 03:55:50;;;;;;;6.63;4.20;;;;;;;6.96;100.00;101291.38;6082781;23;20029;-73
2022/11/10 03:58:16;;;;;;;4.57;4.28;;;;;;;7.96;100.00;101461.78;6129597;23;20041;-73
2022/11/10 04:00:42;;;;;;;5.72;5.22;;;;;;;7.64;100.00;101425.25;6118631;23;20090;-73
2022/11/10 04:03:09;;;;;;;5.30;4.30;;;;;;;8.06;100.00;101498.09;6169083;23;20031;-73
2022/11/10 04:11:05;;;;;;;4.88;4.47;;;;;;;7.68;100.00;101500.91;6143724;23;20024;-74
2022/11/10 04:16:16;;;;;;;4.35;4.10;;;;;;;7.16;100.00;101403.91;6117863;23;20025;-73
2022/11/10 04:18:43;;;;;;;4.43;4.20;;;;;;;7.56;100.00;101507.31;6174171;23;20025;-73
2022/11/10 04:21:11;;;;;;;5.68;4.78;;;;;;;7.69;100.00;101514.81;6114231;23;20075;-73
2022/11/10 04:23:37;;;;;;;4.10;3.90;;;;;;;7.51;100.00;101514.41;6169598;23;20036;-73
2022/11/10 04:28:53;;;;;;;4.85;4.45;;;;;;;6.85;100.00;101382.13;6174749;23;20044;-74
2022/11/10 04:31:21;;;;;;;6.03;4.55;;;;;;;7.86;100.00;101550.94;6135751;23;20197;-73
2022/11/10 04:33:49;;;;;;;4.85;4.65;;;;;;;7.82;100.00;101559.75;6169746;23;20036;-73
2022/11/10 04:36:19;;;;;;;4.70;4.38;;;;;;;7.67;100.00;101532.28;6142069;23;20033;-72
2022/11/10 04:38:46;;;;;;;4.05;3.85;;;;;;;7.51;100.00;101497.88;6174638;23;20025;-72
2022/11/10 04:41:12;;;;;;;5.45;5.05;;;;;;;7.84;100.00;101553.59;6130469;23;20078;-72
2022/11/10 04:43:39;;;;;;;8.32;5.00;;;;;;;7.84;100.00;101535.31;6170345;23;20020;-73
2022/11/10 04:46:12;;;;;;;5.03;4.30;;;;;;;7.65;100.00;101521.03;6135970;23;20024;-73
2022/11/10 04:48:38;;;;;;;4.05;3.85;;;;;;;7.78;100.00;101559.84;6163853;23;20112;-73
2022/11/10 04:51:06;;;;;;;4.57;4.38;;;;;;;7.68;100.00;101547.06;6133017;23;20025;-73
2022/11/10 04:53:33;;;;;;;4.25;3.95;;;;;;;7.79;100.00;101577.22;6147065;23;20032;-73
2022/11/10 04:55:59;;;;;;;5.15;4.72;;;;;;;7.77;100.00;101575.56;6107789;23;20010;-73
2022/11/10 04:58:25;;;;;;;4.63;4.30;;;;;;;7.70;100.00;101585.31;6169751;23;20026;-74
2022/11/10 05:00:52;;;;;;;5.35;4.53;;;;;;;7.46;100.00;101549.38;6119877;23;20433;-73
2022/11/10 05:03:18;;;;;;;7.10;4.13;;;;;;;7.73;100.00;101607.88;6171250;23;20360;-73
2022/11/10 05:05:45;;;;;;;5.05;4.75;;;;;;;7.18;100.00;101530.03;6114884;23;20017;-73
2022/11/10 05:08:12;;;;;;;8.77;6.28;;;;;;;6.68;100.00;101453.00;6173476;23;20021;-73
2022/11/10 05:10:38;;;;;;;4.20;4.00;;;;;;;7.49;100.00;101606.75;6113967;23;20608;-73
2022/11/10 05:13:05;;;;;;;9.52;4.60;;;;;;;7.36;100.00;101585.31;6143007;23;20096;-72
2022/11/10 05:15:32;;;;;;;4.78;4.47;;;;;;;7.61;100.00;101629.97;6139627;23;20044;-72
2022/11/10 05:17:58;;;;;;;4.25;4.05;;;;;;;7.57;100.00;101634.38;6172414;23;20506;-72
2022/11/10 05:20:26;;;;;;;4.55;4.30;;;;;;;7.12;100.00;101560.66;6123822;23;20047;-72
2022/11/10 05:25:40;;;;;;;22.40;5.10;;;;;;;7.41;100.00;101625.22;6141972;23;20016;-72
2022/11/10 05:28:09;;;;;;;4.45;4.25;;;;;;;7.22;100.00;101593.47;6099455;23;20033;-73
2022/11/10 05:30:36;;;;;;;4.45;4.15;;;;;;;7.39;100.00;101633.09;6171188;23;20560;-71
2022/11/10 05:33:03;;;;;;;4.78;4.47;;;;;;;7.14;100.00;101593.66;6116728;23;20062;-72
2022/11/10 05:35:29;;;;;;;4.00;3.80;;;;;;;7.50;100.00;101658.13;6170062;23;20031;-73
2022/11/10 05:37:55;;;;;;;4.20;4.00;;;;;;;7.12;100.00;101600.66;6138757;23;20419;-72
2022/11/10 05:40:23;;;;;;;6.93;5.03;;;;;;;7.35;100.00;101648.88;6173784;23;20028;-72
2022/11/10 05:42:51;;;;;;;4.50;4.30;;;;;;;7.15;100.00;101616.25;6142044;23;20019;-72
2022/11/10 05:45:23;;;;;;;9.25;4.32;;;;;;;7.19;100.00;101630.09;6176834;23;20081;-72
2022/11/10 05:47:50;;;;;;;6.38;4.05;;;;;;;7.32;100.00;101668.09;6101373;23;20492;-73
2022/11/10 05:50:18;;;;;;;4.35;4.15;;;;;;;6.32;100.00;101499.88;6144648;23;20047;-73
2022/11/10 05:52:50;;;;;;;10.82;4.40;;;;;;;7.45;100.00;101686.06;6117994;23;20111;-72
2022/11/10 05:55:20;;;;;;;4.75;4.35;;;;;;;7.42;100.00;101691.34;6143231;23;20427;-72
2022/11/10 05:57:48;;;;;;;4.20;3.92;;;;;;;7.39;100.00;101706.19;6171805;23;20036;-73
2022/11/10 06:00:20;;;;;;;4.45;4.25;;;;;;;7.03;100.00;101647.84;6137128;23;20439;-73
2022/11/10 06:02:58;;;;;;;4.55;4.28;;;;;;;7.27;100.00;101697.81;6174050;23;20081;-74
2022/11/10 06:05:25;;;;;;;4.82;4.05;;;;;;;7.16;100.00;101695.44;6100629;23;20093;-74
2022/11/10 06:07:56;;;;;;;4.57;4.20;;;;;;;6.78;100.00;101631.88;6169128;23;20253;-73
2022/11/10 06:10:24;;;;;;;4.35;4.15;;;;;;;7.28;100.00;101717.81;6100461;23;20091;-73
2022/11/10 06:12:50;;;;;;;6.30;4.45;;;;;;;7.24;100.00;101718.78;6142947;23;20028;-73
2022/11/10 06:15:17;;;;;;;4.18;3.97;;;;;;;7.22;100.00;101715.31;6137559;23;20036;-73
2022/11/10 06:17:43;;;;;;;3.92;3.72;;;;;;;7.25;100.00;101723.09;6133787;23;20059;-74
2022/11/10 06:20:12;;;;;;;4.07;3.88;;;;;;;7.13;100.00;101719.84;6083633;23;20888;-73
2022/11/10 06:22:39;;;;;;;4.65;4.25;;;;;;;6.28;100.00;101563.38;6110759;23;20502;-73
2022/11/10 06:25:06;;;;;;;4.10;3.90;;;;;;;6.44;100.00;101587.41;6169035;23;20028;-74
2022/11/10 06:27:32;;;;;;;4.40;3.97;;;;;;;6.86;100.00;101660.44;6135185;23;20414;-73
2022/11/10 06:29:59;;;;;;;4.85;3.97;;;;;;;7.32;100.00;101740.34;6169545;23;20009;-73
2022/11/10 06:32:25;;;;;;;4.32;4.13;;;;;;;7.28;100.00;101736.09;6135355;23;20259;-74
2022/11/10 06:34:52;;;;;;;6.90;4.57;;;;;;;6.87;100.00;101683.84;6176014;23;20074;-73
2022/11/10 06:37:25;;;;;;;5.20;4.70;;;;;;;7.19;100.00;101735.38;6113565;23;20065;-73
2022/11/10 06:39:51;;;;;;;4.40;4.20;;;;;;;7.18;100.00;101735.41;6180797;23;20024;-74
2022/11/10 06:42:18;;;;;;;4.15;3.95;;;;;;;6.16;100.00;101567.09;6115467;23;20013;-74
2022/11/10 06:44:44;;;;;;;3.92;3.72;;;;;;;7.09;100.00;101743.44;6176276;23;20024;-74
2022/11/10 06:47:10;;;;;;;4.95;4.55;;;;;;;6.27;100.00;101608.56;6123833;23;20439;-74
2022/11/10 06:49:37;;;;;;;4.10;3.90;;;;;;;7.04;100.00;101743.53;6179586;23;20054;-74
2022/11/10 06:52:03;;;;;;;4.13;3.92;;;;;;;7.06;100.00;101752.19;6154860;23;20028;-72
2022/11/10 06:54:30;;;;;;;4.85;4.45;;;;;;;7.23;100.00;101785.78;6179151;23;20090;-73
2022/11/10 06:56:56;;;;;;;8.30;4.88;;;;;;;7.13;100.00;101764.22;6152418;23;20025;-73
2022/11/10 06:59:22;;;;;;;5.03;4.68;;;;;;;6.81;100.00;101730.94;6181761;23;20530;-74
2022/11/10 07:01:49;;;;;;;5.50;4.45;;;;;;;6.92;100.00;101733.34;6097042;23;20029;-74
2022/11/10 07:04:15;;;;;;;3.90;3.70;;;;;;;7.15;100.00;101792.91;6177921;23;20074;-74
2022/11/10 07:06:46;;;;;;;4.00;3.80;;;;;;;6.88;100.00;101740.38;6141115;23;20029;-74
2022/11/10 07:09:14;;;;;;;4.15;3.95;;;;;;;7.03;100.00;101762.69;6178555;23;20008;-73
2022/11/10 07:11:40;;;;;;;4.13;3.83;;;;;;;7.19;100.00;101777.13;6123553;23;20036;-75
2022/11/10 07:14:07;;;;;;;11.35;4.60;;;;;;;7.02;100.00;101734.88;6175841;23;20089;-75
2022/11/10 07:16:33;;;;;;;13.30;3.88;;;;;;;7.12;100.00;101761.66;6142697;23;20251;-75
2022/11/10 07:19:00;;;;;;;3.55;3.42;;;;;;;7.53;100.00;101819.97;6179229;23;20032;-75
2022/11/10 07:21:26;;;;;;;9.43;5.00;;;;;;;7.09;100.00;101746.91;6150236;23;20009;-75
2022/11/10 07:23:53;;;;;;;5.80;5.25;;;;;;;7.33;100.00;101783.84;6144941;23;20293;-75
2022/11/10 07:26:19;;;;;;;4.50;4.10;;;;;;;7.17;100.00;101754.56;6138544;23;20014;-75
2022/11/10 07:28:45;;;;;;;8.52;4.03;;;;;;;7.73;100.00;101841.28;6177070;23;20400;-75
2022/11/10 07:31:12;;;;;;;7.43;4.63;;;;;;;7.87;100.00;101861.03;6092815;23;20612;-75
2022/11/10 07:33:38;;;;;;;4.57;4.18;;;;;;;7.73;100.00;101824.75;6174604;23;20089;-74
2022/11/10 07:36:06;;;;;;;4.32;4.13;;;;;;;7.87;100.00;101858.44;6144009;23;20032;-75
2022/11/10 07:38:32;;;;;;;4.20;4.00;;;;;;;8.04;100.00;101879.84;6148473;23;20029;-74
2022/11/10 07:40:59;;;;;;;4.25;3.85;;;;;;;7.99;100.00;101851.16;6143260;23;20065;-75
2022/11/10 07:43:25;;;;;;;4.25;4.05;;;;;;;8.17;100.00;101872.56;6178658;23;20024;-74
2022/11/10 07:45:52;;;;;;;5.00;4.57;;;;;;;8.24;100.00;101873.25;6149085;23;20149;-74
2022/11/10 07:48:18;;;;;;;4.00;3.80;;;;;;;8.14;100.00;101849.13;6173828;23;20021;-74
2022/11/10 07:50:45;;;;;;;7.13;4.70;;;;;;;7.80;100.00;101789.78;6132803;23;20094;-74
2022/11/10 07:53:13;;;;;;;4.63;4.30;;;;;;;8.08;100.00;101823.09;6174416;23;20009;-75
2022/11/10 07:55:42;;;;;;;4.50;4.30;;;;;;;7.16;100.00;101674.56;6119535;23;20176;-75
2022/11/10 07:58:11;;;;;;;4.20;4.00;;;;;;;8.42;100.00;101870.25;6144152;23;20178;-75
2022/11/10 08:00:38;;;;;;;4.30;4.00;;;;;;;8.62;100.00;101887.22;6168007;23;20058;-74
2022/11/10 08:03:06;;;;;;;4.43;4.13;;;;;;;8.48;100.00;101853.53;6093395;23;20474;-75
2022/11/10 08:05:33;;;;;;;4.32;4.03;;;;;;;8.27;100.00;101828.75;6172093;23;20059;-75
2022/11/10 08:08:00;;;;;;;4.32;4.13;;;;;;;8.53;100.00;101862.13;6137942;23;20028;-75
2022/11/10 08:10:28;;;;;;;5.38;4.18;;;;;;;8.92;100.00;101911.75;6171005;23;20092;-75
2022/11/10 08:12:56;;;;;;;4.22;4.03;;;;;;;8.70;100.00;101873.06;6087546;23;20055;-75
2022/11/10 08:15:24;;;;;;;3.80;3.65;;;;;;;8.52;100.00;101835.13;6177907;23;20017;-75
2022/11/10 08:17:56;;;;;;;4.57;4.28;;;;;;;9.14;100.00;101920.78;6125690;23;20300;-75
2022/11/10 08:20:22;;;;;;;6.30;4.60;;;;;;;8.60;100.00;101821.84;6172561;23;20048;-77
2022/11/10 08:22:56;;;;;;;4.82;4.50;;;;;;;9.30;100.00;101929.09;6141634;23;20486;-75
2022/11/10 08:25:25;;;;;;;5.75;5.15;;;;;;;9.18;100.00;101908.44;6114388;23;20165;-75
2022/11/10 08:28:05;;;;;;;4.10;3.90;;;;;;;9.46;100.00;101947.00;6121959;23;20025;-74
2022/11/10 08:30:32;;;;;;;5.32;4.93;;;;;;;9.55;100.00;101944.97;6137827;23;20033;-75
2022/11/10 08:33:00;;;;;;;4.13;3.90;;;;;;;9.63;100.00;101944.75;6145137;23;20126;-75
2022/11/10 08:35:29;;;;;;;4.80;4.50;;;;;;;9.72;100.00;101947.13;6143561;23;20029;-74
2022/11/10 08:37:56;;;;;;;6.10;5.60;;;;;;;8.99;100.00;101822.53;6141667;23;20033;-76
2022/11/10 08:40:26;;;;;;;7.57;4.40;;;;;;;9.42;100.00;101878.13;6141751;23;20029;-75
2022/11/10 08:42:58;;;;;;;14.43;4.53;;;;;;;9.77;100.00;101934.75;6174240;23;20518;-76
2022/11/10 08:45:25;;;;;;;8.30;4.88;;;;;;;10.13;100.00;101987.03;6113692;23;20021;-75
2022/11/10 08:47:59;;;;;;;7.32;4.53;;;;;;;10.15;100.00;101974.72;6174486;23;20016;-74
2022/11/10 08:50:26;;;;;;;9.60;4.40;;;;;;;9.84;100.00;101930.16;6000060;23;20367;-74
2022/11/10 08:52:53;;;;;;;5.40;4.63;;;;;;;9.90;100.00;101916.91;6170369;23;20024;-76
2022/11/10 08:55:20;;;;;;;4.85;4.55;;;;;;;9.89;100.00;101911.69;6132306;23;20096;-75
2022/11/10 08:57:47;;;;;;;8.13;5.35;;;;;;;10.58;100.00;102025.94;6145663;23;20463;-76
2022/11/10 09:00:15;;;;;;;5.93;4.90;;;;;;;10.68;100.00;102033.50;6132662;23;20021;-76
2022/11/10 09:02:41;;;;;;;9.15;4.65;;;;;;;10.71;100.00;102041.31;6171238;23;20036;-75
2022/11/10 09:05:08;;;;;;;7.53;4.30;;;;;;;10.73;100.00;102050.00;6102328;23;20142;-75
2022/11/10 09:07:45;;;;;;;5.78;4.75;;;;;;;10.51;100.00;102005.19;6145051;23;20096;-75
2022/11/10 09:10:13;;;;;;;4.40;4.20;;;;;;;10.01;100.00;101910.47;6142703;23;21420;-74
2022/11/10 09:12:41;;;;;;;5.47;5.07;;;;;;;10.82;100.00;102025.22;6171294;23;20109;-76
2022/11/10 09:15:09;;;;;;;4.90;4.70;;;;;;;11.09;100.00;102053.22;6123239;23;20447;-77
2022/11/10 09:17:37;;;;;;;6.45;5.30;;;;;;;11.14;100.00;102064.41;6170944;23;20596;-76
2022/11/10 09:20:05;;;;;;;14.88;5.10;;;;;;;11.26;100.00;102060.53;6128169;23;20025;-75
2022/11/10 09:22:34;;;;;;;4.22;4.03;;;;;;;11.38;100.00;102072.41;6171452;23;20451;-76
2022/11/10 09:25:00;;;;;;;5.50;5.10;;;;;;;11.43;100.00;102075.75;6128641;23;20258;-76
2022/11/10 09:27:27;;;;;;;5.13;4.70;;;;;;;11.53;100.00;102079.78;6169358;23;20282;-76
2022/11/10 09:29:53;;;;;;;6.60;4.55;;;;;;;11.58;100.00;102071.72;6127450;23;20018;-76
2022/11/10 09:32:19;;;;;;;5.50;5.20;;;;;;;11.53;100.00;102045.59;6174867;23;20028;-76
2022/11/10 09:34:46;;;;;;;5.63;5.07;;;;;;;11.31;100.00;101999.94;6121533;23;20570;-77
2022/11/10 09:37:18;;;;;;;4.70;4.50;;;;;;;11.60;100.00;102040.97;6171671;23;20013;-77
2022/11/10 09:39:44;;;;;;;4.90;4.60;;;;;;;12.02;100.00;102090.38;6129878;23;20254;-76
2022/11/10 09:42:35;;;;;;;6.03;5.43;;;;;;;12.10;100.00;102109.38;6171606;23;20137;-77
2022/11/10 09:45:16;;;;;;;5.00;4.70;;;;;;;12.22;100.00;102091.44;6140303;23;20541;-76
2022/11/10 09:48:06;;;;;;;5.35;4.90;;;;;;;12.26;100.00;102114.94;6117683;23;20234;-74
2022/11/10 09:50:41;;;;;;;6.80;4.43;;;;;;;12.25;100.00;102092.19;6168225;23;20187;-75
2022/11/10 09:53:14;;;;;;;7.20;5.18;;;;;;;12.51;100.00;102119.34;6141512;23;20021;-74
2022/11/10 09:56:00;;;;;;;5.20;4.88;;;;;;;12.36;100.00;102082.09;6164182;23;20097;-75
2022/11/10 09:58:40;;;;;;;6.32;4.88;;;;;;;12.57;100.00;102105.94;6131766;23;20033;-75
2022/11/10 10:01:21;;;;;;;5.38;4.97;;;;;;;12.88;100.00;102131.94;6167325;23;20584;-75
2022/11/10 10:03:57;;;;;;;4.90;4.70;;;;;;;12.90;100.00;102109.03;6113745;23;20072;-74
2022/11/10 10:06:24;;;;;;;8.90;4.93;;;;;;;13.11;100.00;102136.31;6144771;23;20072;-75
2022/11/10 10:09:37;;;;;;;5.40;4.90;;;;;;;13.29;100.00;102139.13;6129086;23;20588;-75
2022/11/10 10:12:12;;;;;;;4.93;4.63;;;;;;;13.34;98.60;102137.19;6144631;23;20028;-74
2022/11/10 10:14:55;;;;;;;4.60;4.40;;;;;;;13.26;97.99;102104.97;6122974;23;20085;-75
2022/11/10 10:17:33;;;;;;;5.40;4.60;;;;;;;13.51;96.71;102132.09;6141036;23;20089;-76
2022/11/10 10:20:15;;;;;;;8.45;4.68;;;;;;;13.02;95.35;102057.59;6090483;23;20085;-74
2022/11/10 10:22:51;;;;;;;10.77;4.93;;;;;;;13.66;94.93;102135.00;6114353;23;20020;-74
2022/11/10 10:25:22;;;;;;;7.38;4.70;;;;;;;13.29;94.93;102070.56;6110663;23;20025;-77
2022/11/10 10:28:01;;;;;;;4.68;4.38;;;;;;;13.52;94.16;102086.31;6169795;23;20414;-75
2022/11/10 10:30:28;;;;;;;5.80;5.00;;;;;;;13.75;92.97;102111.72;6093412;23;20096;-76
2022/11/10 10:33:01;;;;;;;8.73;4.97;;;;;;;14.08;92.22;102144.66;6141789;23;20009;-76
2022/11/10 10:35:30;;;;;;;6.18;5.68;;;;;;;13.60;91.38;102037.66;6133852;23;20337;-75
2022/11/10 10:37:57;;;;;;;5.15;4.85;;;;;;;13.74;90.27;102066.94;6121580;23;20179;-74
2022/11/10 10:40:24;;;;;;;5.85;5.05;;;;;;;14.33;90.06;102133.84;6125872;23;20058;-74
2022/11/10 10:42:50;;;;;;;7.28;4.75;;;;;;;14.25;90.09;102109.56;6128871;23;20030;-74
2022/11/10 10:45:22;;;;;;;5.05;4.75;;;;;;;14.34;89.06;102099.44;6144332;23;20101;-77
2022/11/10 10:47:55;;;;;;;5.53;5.18;;;;;;;14.69;87.80;102125.19;6144285;23;20040;-75
2022/11/10 10:50:24;;;;;;;14.75;5.85;;;;;;;14.84;86.86;102118.34;6142307;23;20570;-76
2022/11/10 10:53:19;;;;;;;5.68;4.97;;;;;;;14.84;86.12;102113.06;6172616;23;20074;-76
2022/11/10 10:55:53;;;;;;;18.55;5.60;;;;;;;14.92;85.13;102110.91;6113467;23;20021;-75
2022/11/10 10:58:23;;;;;;;9.75;5.38;;;;;;;14.96;84.35;102107.19;6142209;23;20034;-76
2022/11/10 11:01:00;;;;;;;5.88;5.25;;;;;;;14.94;83.40;102090.53;6116127;23;20087;-76
2022/11/10 11:03:35;;;;;;;5.75;5.25;;;;;;;14.94;82.55;102079.97;6143774;23;20062;-76
2022/11/10 11:06:06;;;;;;;8.90;5.18;;;;;;;14.66;81.71;102036.34;6110055;23;20240;-74
2022/11/10 11:08:33;;;;;;;5.82;4.93;;;;;;;14.65;81.81;102008.22;6145326;23;20036;-74
2022/11/10 11:11:08;;;;;;;5.53;5.22;;;;;;;15.14;81.76;102079.00;6127594;23;20012;-75
2022/11/10 11:13:34;;;;;;;8.02;4.90;;;;;;;15.02;79.99;102038.16;6139391;23;20041;-74
2022/11/10 11:16:07;;;;;;;5.93;4.78;;;;;;;15.28;80.42;102088.88;6135549;23;20041;-74
2022/11/10 11:18:37;;;;;;;5.45;5.15;;;;;;;15.30;79.80;102100.25;6164880;23;20117;-74
2022/11/10 11:21:32;;;;;;;5.60;5.20;;;;;;;14.90;79.31;102059.91;6111353;23;20025;-75
2022/11/10 11:24:14;;;;;;;5.00;4.70;;;;;;;14.14;79.09;101933.16;6144778;23;20033;-76
2022/11/10 11:26:59;;;;;;;10.30;5.22;;;;;;;15.45;78.10;102104.75;6099697;23;20112;-76
2022/11/10 11:29:40;;;;;;;5.63;5.22;;;;;;;15.63;77.72;102104.75;6174022;23;20224;-75
2022/11/10 11:32:31;;;;;;;6.72;5.10;;;;;;;15.70;76.91;102098.22;6128997;23;20059;-76
2022/11/10 11:35:16;;;;;;;5.18;4.72;;;;;;;15.66;74.75;102091.38;6140214;23;20013;-76
2022/11/10 11:37:53;;;;;;;5.25;4.72;;;;;;;15.73;73.02;102074.28;6138972;23;20408;-75
2022/11/10 11:40:45;;;;;;;5.57;5.05;;;;;;;15.61;71.01;102038.69;6172176;23;20408;-76
2022/11/10 11:43:37;;;;;;;5.70;5.30;;;;;;;15.56;70.37;102044.22;6121812;23;20017;-76
2022/11/10 11:46:16;;;;;;;6.40;4.70;;;;;;;15.61;70.28;102049.25;6173572;23;20632;-75
2022/11/10 11:48:57;;;;;;;4.95;4.50;;;;;;;15.67;69.97;102058.69;6113355;23;20134;-76
2022/11/10 11:51:43;;;;;;;5.45;5.05;;;;;;;15.17;69.83;101967.75;6176539;23;20035;-76